sensor_id;sensor_type;location;lat;lon;timestamp;P1;durP1;ratioP1;P2;durP2;ratioP2
6505;SDS011;3286;49.858;8.768;2023-01-15T00:00:56;2.90;;;0.83;;
6505;SDS011;3286;49.858;8.768;2023-01-15T00:03:45;0.90;;;0.80;;
6505;SDS011;3286;49.858;8.768;2023-01-15T00:09:44;0.70;;;0.70;;
6505;SDS011;3286;49.858;8.768;2023-01-15T00:12:24;1.03;;;0.80;;
6505;SDS011;3286;49.858;8.768;2023-01-15T00:15:19;1.07;;;0.97;;
6505;SDS011;3286;49.858;8.768;2023-01-15T00:18:17;0.50;;;0.50;;
6505;SDS011;3286;49.858;8.768;2023-01-15T00:21:39;0.77;;;0.77;;
6505;SDS011;3286;49.858;8.768;2023-01-15T00:28:02;0.67;;;0.67;;
6505;SDS011;3286;49.858;8.768;2023-01-15T00:30:42;0.83;;;0.80;;
6505;SDS011;3286;49.858;8.768;2023-01-15T00:33:53;0.70;;;0.60;;
6505;SDS011;3286;49.858;8.768;2023-01-15T00:36:46;0.60;;;0.60;;
6505;SDS011;3286;49.858;8.768;2023-01-15T00:39:38;1.00;;;0.80;;
6505;SDS011;3286;49.858;8.768;2023-01-15T00:42:40;1.23;;;0.77;;
6505;SDS011;3286;49.858;8.768;2023-01-15T00:45:56;0.70;;;0.70;;
6505;SDS011;3286;49.858;8.768;2023-01-15T00:48:28;0.60;;;0.60;;
6505;SDS011;3286;49.858;8.768;2023-01-15T00:51:14;0.80;;;0.80;;
6505;SDS011;3286;49.858;8.768;2023-01-15T00:54:24;0.97;;;0.73;;
6505;SDS011;3286;49.858;8.768;2023-01-15T00:57:03;0.63;;;0.63;;
6505;SDS011;3286;49.858;8.768;2023-01-15T00:59:39;0.70;;;0.70;;
6505;SDS011;3286;49.858;8.768;2023-01-15T01:05:39;0.50;;;0.50;;
6505;SDS011;3286;49.858;8.768;2023-01-15T01:08:34;0.83;;;0.63;;
6505;SDS011;3286;49.858;8.768;2023-01-15T01:11:30;0.97;;;0.63;;
6505;SDS011;3286;49.858;8.768;2023-01-15T01:14:51;1.67;;;0.60;;
6505;SDS011;3286;49.858;8.768;2023-01-15T01:18:04;0.50;;;0.50;;
6505;SDS011;3286;49.858;8.768;2023-01-15T01:20:53;0.60;;;0.60;;
6505;SDS011;3286;49.858;8.768;2023-01-15T01:23:41;0.40;;;0.40;;
6505;SDS011;3286;49.858;8.768;2023-01-15T01:26:32;2.30;;;0.50;;
6505;SDS011;3286;49.858;8.768;2023-01-15T01:29:21;0.40;;;0.40;;
6505;SDS011;3286;49.858;8.768;2023-01-15T01:31:52;1.80;;;0.50;;
6505;SDS011;3286;49.858;8.768;2023-01-15T01:41:10;0.43;;;0.43;;
6505;SDS011;3286;49.858;8.768;2023-01-15T01:47:58;0.50;;;0.50;;
6505;SDS011;3286;49.858;8.768;2023-01-15T01:50:59;0.30;;;0.30;;
6505;SDS011;3286;49.858;8.768;2023-01-15T01:53:58;1.07;;;0.30;;
6505;SDS011;3286;49.858;8.768;2023-01-15T01:59:43;0.70;;;0.50;;
6505;SDS011;3286;49.858;8.768;2023-01-15T02:02:33;0.30;;;0.30;;
6505;SDS011;3286;49.858;8.768;2023-01-15T02:05:25;0.30;;;0.30;;
6505;SDS011;3286;49.858;8.768;2023-01-15T02:11:44;0.53;;;0.43;;
6505;SDS011;3286;49.858;8.768;2023-01-15T02:14:35;1.57;;;0.80;;
6505;SDS011;3286;49.858;8.768;2023-01-15T02:17:34;1.50;;;1.10;;
6505;SDS011;3286;49.858;8.768;2023-01-15T02:20:25;1.50;;;1.00;;
6505;SDS011;3286;49.858;8.768;2023-01-15T02:30:04;1.80;;;0.60;;
6505;SDS011;3286;49.858;8.768;2023-01-15T02:32:56;0.43;;;0.43;;
6505;SDS011;3286;49.858;8.768;2023-01-15T02:38:32;0.50;;;0.50;;
6505;SDS011;3286;49.858;8.768;2023-01-15T02:41:25;0.83;;;0.60;;
6505;SDS011;3286;49.858;8.768;2023-01-15T02:44:32;0.83;;;0.60;;
6505;SDS011;3286;49.858;8.768;2023-01-15T02:47:02;0.57;;;0.57;;
6505;SDS011;3286;49.858;8.768;2023-01-15T02:50:01;0.50;;;0.50;;
6505;SDS011;3286;49.858;8.768;2023-01-15T02:53:25;0.63;;;0.30;;
6505;SDS011;3286;49.858;8.768;2023-01-15T02:56:29;0.60;;;0.40;;
6505;SDS011;3286;49.858;8.768;2023-01-15T02:59:14;0.30;;;0.30;;
6505;SDS011;3286;49.858;8.768;2023-01-15T03:02:57;0.40;;;0.40;;
6505;SDS011;3286;49.858;8.768;2023-01-15T03:05:01;1.10;;;0.50;;
6505;SDS011;3286;49.858;8.768;2023-01-15T03:10:38;0.67;;;0.67;;
6505;SDS011;3286;49.858;8.768;2023-01-15T03:13:20;0.50;;;0.50;;
6505;SDS011;3286;49.858;8.768;2023-01-15T03:16:40;0.50;;;0.50;;
6505;SDS011;3286;49.858;8.768;2023-01-15T03:19:48;0.27;;;0.27;;
6505;SDS011;3286;49.858;8.768;2023-01-15T03:22:38;0.50;;;0.50;;
6505;SDS011;3286;49.858;8.768;2023-01-15T03:25:28;0.30;;;0.30;;
6505;SDS011;3286;49.858;8.768;2023-01-15T03:28:34;0.30;;;0.30;;
6505;SDS011;3286;49.858;8.768;2023-01-15T03:31:34;0.37;;;0.37;;
6505;SDS011;3286;49.858;8.768;2023-01-15T03:34:10;0.37;;;0.37;;
6505;SDS011;3286;49.858;8.768;2023-01-15T03:37:03;0.40;;;0.40;;
6505;SDS011;3286;49.858;8.768;2023-01-15T03:39:35;0.60;;;0.60;;
6505;SDS011;3286;49.858;8.768;2023-01-15T03:42:32;0.40;;;0.40;;
6505;SDS011;3286;49.858;8.768;2023-01-15T03:45:36;0.37;;;0.37;;
6505;SDS011;3286;49.858;8.768;2023-01-15T03:48:40;0.70;;;0.53;;
6505;SDS011;3286;49.858;8.768;2023-01-15T03:51:49;0.63;;;0.50;;
6505;SDS011;3286;49.858;8.768;2023-01-15T04:01:17;0.83;;;0.47;;
6505;SDS011;3286;49.858;8.768;2023-01-15T04:03:51;0.30;;;0.23;;
6505;SDS011;3286;49.858;8.768;2023-01-15T04:07:00;0.70;;;0.30;;
6505;SDS011;3286;49.858;8.768;2023-01-15T04:09:53;0.57;;;0.20;;
6505;SDS011;3286;49.858;8.768;2023-01-15T04:12:55;0.40;;;0.40;;
6505;SDS011;3286;49.858;8.768;2023-01-15T04:15:52;0.63;;;0.40;;
6505;SDS011;3286;49.858;8.768;2023-01-15T04:18:43;0.50;;;0.50;;
6505;SDS011;3286;49.858;8.768;2023-01-15T04:21:22;0.10;;;0.10;;
6505;SDS011;3286;49.858;8.768;2023-01-15T04:24:19;0.30;;;0.30;;
6505;SDS011;3286;49.858;8.768;2023-01-15T04:27:16;0.30;;;0.30;;
6505;SDS011;3286;49.858;8.768;2023-01-15T04:30:13;0.23;;;0.23;;
6505;SDS011;3286;49.858;8.768;2023-01-15T04:33:14;0.30;;;0.30;;
6505;SDS011;3286;49.858;8.768;2023-01-15T04:39:14;0.20;;;0.20;;
6505;SDS011;3286;49.858;8.768;2023-01-15T04:41:59;0.40;;;0.40;;
6505;SDS011;3286;49.858;8.768;2023-01-15T04:45:25;1.07;;;0.30;;
6505;SDS011;3286;49.858;8.768;2023-01-15T04:48:11;0.67;;;0.33;;
6505;SDS011;3286;49.858;8.768;2023-01-15T04:51:10;0.20;;;0.20;;
6505;SDS011;3286;49.858;8.768;2023-01-15T04:54:15;0.30;;;0.30;;
6505;SDS011;3286;49.858;8.768;2023-01-15T04:57:11;0.30;;;0.30;;
6505;SDS011;3286;49.858;8.768;2023-01-15T05:00:10;0.23;;;0.20;;
6505;SDS011;3286;49.858;8.768;2023-01-15T05:03:25;0.40;;;0.40;;
6505;SDS011;3286;49.858;8.768;2023-01-15T05:06:05;0.40;;;0.40;;
6505;SDS011;3286;49.858;8.768;2023-01-15T05:08:52;0.20;;;0.20;;
6505;SDS011;3286;49.858;8.768;2023-01-15T05:15:06;1.87;;;0.50;;
6505;SDS011;3286;49.858;8.768;2023-01-15T05:17:52;0.33;;;0.33;;
6505;SDS011;3286;49.858;8.768;2023-01-15T05:20:34;2.00;;;0.40;;
6505;SDS011;3286;49.858;8.768;2023-01-15T05:23:57;0.60;;;0.40;;
6505;SDS011;3286;49.858;8.768;2023-01-15T05:26:50;0.20;;;0.20;;
6505;SDS011;3286;49.858;8.768;2023-01-15T05:39:14;0.30;;;0.30;;
6505;SDS011;3286;49.858;8.768;2023-01-15T05:42:16;0.30;;;0.30;;
6505;SDS011;3286;49.858;8.768;2023-01-15T05:44:55;0.60;;;0.43;;
6505;SDS011;3286;49.858;8.768;2023-01-15T05:47:27;0.30;;;0.30;;
6505;SDS011;3286;49.858;8.768;2023-01-15T05:50:40;0.70;;;0.40;;
6505;SDS011;3286;49.858;8.768;2023-01-15T05:59:29;0.30;;;0.30;;
6505;SDS011;3286;49.858;8.768;2023-01-15T06:02:18;0.40;;;0.40;;
6505;SDS011;3286;49.858;8.768;2023-01-15T06:04:59;0.30;;;0.30;;
6505;SDS011;3286;49.858;8.768;2023-01-15T06:07:52;1.07;;;0.50;;
6505;SDS011;3286;49.858;8.768;2023-01-15T06:11:10;0.93;;;0.47;;
6505;SDS011;3286;49.858;8.768;2023-01-15T06:14:29;0.33;;;0.30;;
6505;SDS011;3286;49.858;8.768;2023-01-15T06:17:26;0.87;;;0.40;;
6505;SDS011;3286;49.858;8.768;2023-01-15T06:20:48;0.20;;;0.20;;
6505;SDS011;3286;49.858;8.768;2023-01-15T06:23:41;0.20;;;0.20;;
6505;SDS011;3286;49.858;8.768;2023-01-15T06:26:21;0.30;;;0.30;;
6505;SDS011;3286;49.858;8.768;2023-01-15T06:29:20;0.33;;;0.27;;
6505;SDS011;3286;49.858;8.768;2023-01-15T06:35:05;0.80;;;0.60;;
6505;SDS011;3286;49.858;8.768;2023-01-15T06:44:05;0.50;;;0.50;;
6505;SDS011;3286;49.858;8.768;2023-01-15T06:50:29;0.43;;;0.43;;
6505;SDS011;3286;49.858;8.768;2023-01-15T06:53:28;1.10;;;0.90;;
6505;SDS011;3286;49.858;8.768;2023-01-15T06:56:24;1.23;;;0.67;;
6505;SDS011;3286;49.858;8.768;2023-01-15T06:59:17;0.93;;;0.80;;
6505;SDS011;3286;49.858;8.768;2023-01-15T07:02:26;0.80;;;0.80;;
6505;SDS011;3286;49.858;8.768;2023-01-15T07:05:14;1.90;;;0.70;;
6505;SDS011;3286;49.858;8.768;2023-01-15T07:08:19;1.10;;;1.00;;
6505;SDS011;3286;49.858;8.768;2023-01-15T07:11:27;0.70;;;0.70;;
6505;SDS011;3286;49.858;8.768;2023-01-15T07:14:20;0.80;;;0.80;;
6505;SDS011;3286;49.858;8.768;2023-01-15T07:24:04;1.30;;;1.20;;
6505;SDS011;3286;49.858;8.768;2023-01-15T07:27:08;1.57;;;1.20;;
6505;SDS011;3286;49.858;8.768;2023-01-15T07:30:17;2.47;;;0.80;;
6505;SDS011;3286;49.858;8.768;2023-01-15T07:33:12;0.80;;;0.80;;
6505;SDS011;3286;49.858;8.768;2023-01-15T07:36:12;0.60;;;0.60;;
6505;SDS011;3286;49.858;8.768;2023-01-15T07:39:17;0.50;;;0.50;;
6505;SDS011;3286;49.858;8.768;2023-01-15T07:41:57;0.30;;;0.30;;
6505;SDS011;3286;49.858;8.768;2023-01-15T07:48:23;0.47;;;0.47;;
6505;SDS011;3286;49.858;8.768;2023-01-15T07:51:12;0.40;;;0.40;;
6505;SDS011;3286;49.858;8.768;2023-01-15T07:54:12;0.93;;;0.50;;
6505;SDS011;3286;49.858;8.768;2023-01-15T07:57:05;0.70;;;0.70;;
6505;SDS011;3286;49.858;8.768;2023-01-15T07:59:44;0.70;;;0.70;;
6505;SDS011;3286;49.858;8.768;2023-01-15T08:02:33;0.80;;;0.80;;
6505;SDS011;3286;49.858;8.768;2023-01-15T08:08:58;0.80;;;0.80;;
6505;SDS011;3286;49.858;8.768;2023-01-15T08:11:58;0.40;;;0.40;;
6505;SDS011;3286;49.858;8.768;2023-01-15T08:15:02;0.87;;;0.60;;
6505;SDS011;3286;49.858;8.768;2023-01-15T08:17:57;0.47;;;0.43;;
6505;SDS011;3286;49.858;8.768;2023-01-15T08:21:10;1.00;;;0.60;;
6505;SDS011;3286;49.858;8.768;2023-01-15T08:24:21;0.40;;;0.40;;
6505;SDS011;3286;49.858;8.768;2023-01-15T08:26:57;1.80;;;1.13;;
6505;SDS011;3286;49.858;8.768;2023-01-15T08:29:35;0.63;;;0.63;;
6505;SDS011;3286;49.858;8.768;2023-01-15T08:33:32;0.40;;;0.40;;
6505;SDS011;3286;49.858;8.768;2023-01-15T08:36:01;1.10;;;0.73;;
6505;SDS011;3286;49.858;8.768;2023-01-15T08:38:41;0.73;;;0.73;;
6505;SDS011;3286;49.858;8.768;2023-01-15T08:45:50;1.53;;;0.73;;
6505;SDS011;3286;49.858;8.768;2023-01-15T08:48:32;0.80;;;0.70;;
6505;SDS011;3286;49.858;8.768;2023-01-15T08:54:34;0.70;;;0.70;;
6505;SDS011;3286;49.858;8.768;2023-01-15T09:00:36;1.20;;;1.10;;
6505;SDS011;3286;49.858;8.768;2023-01-15T09:03:38;0.80;;;0.70;;
6505;SDS011;3286;49.858;8.768;2023-01-15T09:06:55;3.73;;;1.20;;
6505;SDS011;3286;49.858;8.768;2023-01-15T09:10:28;2.00;;;0.90;;
6505;SDS011;3286;49.858;8.768;2023-01-15T09:13:25;6.87;;;1.60;;
6505;SDS011;3286;49.858;8.768;2023-01-15T09:16:03;2.43;;;0.80;;
6505;SDS011;3286;49.858;8.768;2023-01-15T09:19:11;2.20;;;1.60;;
6505;SDS011;3286;49.858;8.768;2023-01-15T09:22:06;1.07;;;0.97;;
6505;SDS011;3286;49.858;8.768;2023-01-15T09:28:19;2.80;;;1.10;;
6505;SDS011;3286;49.858;8.768;2023-01-15T09:30:45;2.40;;;1.50;;
6505;SDS011;3286;49.858;8.768;2023-01-15T09:34:01;3.97;;;1.90;;
6505;SDS011;3286;49.858;8.768;2023-01-15T09:37:10;1.63;;;1.30;;
6505;SDS011;3286;49.858;8.768;2023-01-15T09:40:02;0.80;;;0.80;;
6505;SDS011;3286;49.858;8.768;2023-01-15T09:42:59;1.40;;;1.17;;
6505;SDS011;3286;49.858;8.768;2023-01-15T09:46:07;1.20;;;0.90;;
6505;SDS011;3286;49.858;8.768;2023-01-15T09:49:01;1.20;;;1.07;;
6505;SDS011;3286;49.858;8.768;2023-01-15T09:52:22;0.90;;;0.90;;
6505;SDS011;3286;49.858;8.768;2023-01-15T09:55:34;1.23;;;0.80;;
6505;SDS011;3286;49.858;8.768;2023-01-15T09:58:29;1.10;;;1.00;;
6505;SDS011;3286;49.858;8.768;2023-01-15T10:01:18;1.03;;;0.93;;
6505;SDS011;3286;49.858;8.768;2023-01-15T10:10:46;1.23;;;0.70;;
6505;SDS011;3286;49.858;8.768;2023-01-15T10:14:18;0.70;;;0.70;;
6505;SDS011;3286;49.858;8.768;2023-01-15T10:17:20;1.63;;;0.90;;
6505;SDS011;3286;49.858;8.768;2023-01-15T10:20:26;12.73;;;2.03;;
6505;SDS011;3286;49.858;8.768;2023-01-15T10:26:37;3.20;;;1.40;;
6505;SDS011;3286;49.858;8.768;2023-01-15T10:29:51;3.70;;;2.20;;
6505;SDS011;3286;49.858;8.768;2023-01-15T10:32:39;18.73;;;3.77;;
6505;SDS011;3286;49.858;8.768;2023-01-15T10:35:46;1.43;;;1.13;;
6505;SDS011;3286;49.858;8.768;2023-01-15T10:38:34;1.30;;;1.20;;
6505;SDS011;3286;49.858;8.768;2023-01-15T10:44:38;0.70;;;0.70;;
6505;SDS011;3286;49.858;8.768;2023-01-15T10:47:41;0.83;;;0.70;;
6505;SDS011;3286;49.858;8.768;2023-01-15T10:50:39;0.90;;;0.70;;
6505;SDS011;3286;49.858;8.768;2023-01-15T10:53:37;0.90;;;0.73;;
6505;SDS011;3286;49.858;8.768;2023-01-15T10:56:40;2.27;;;0.80;;
6505;SDS011;3286;49.858;8.768;2023-01-15T11:02:32;1.50;;;1.20;;
6505;SDS011;3286;49.858;8.768;2023-01-15T11:05:10;0.80;;;0.80;;
6505;SDS011;3286;49.858;8.768;2023-01-15T11:07:50;0.80;;;0.70;;
6505;SDS011;3286;49.858;8.768;2023-01-15T11:13:31;0.60;;;0.60;;
6505;SDS011;3286;49.858;8.768;2023-01-15T11:19:36;4.23;;;2.23;;
6505;SDS011;3286;49.858;8.768;2023-01-15T11:22:11;2.13;;;1.27;;
6505;SDS011;3286;49.858;8.768;2023-01-15T11:28:08;2.20;;;1.10;;
6505;SDS011;3286;49.858;8.768;2023-01-15T11:31:06;2.00;;;1.07;;
6505;SDS011;3286;49.858;8.768;2023-01-15T11:36:41;1.00;;;0.63;;
6505;SDS011;3286;49.858;8.768;2023-01-15T11:39:43;1.73;;;1.20;;
6505;SDS011;3286;49.858;8.768;2023-01-15T11:42:56;1.90;;;1.33;;
6505;SDS011;3286;49.858;8.768;2023-01-15T11:49:20;3.30;;;1.10;;
6505;SDS011;3286;49.858;8.768;2023-01-15T11:52:18;1.80;;;0.70;;
6505;SDS011;3286;49.858;8.768;2023-01-15T11:55:12;0.80;;;0.50;;
6505;SDS011;3286;49.858;8.768;2023-01-15T11:58:13;3.03;;;0.70;;
6505;SDS011;3286;49.858;8.768;2023-01-15T12:01:13;2.97;;;1.97;;
6505;SDS011;3286;49.858;8.768;2023-01-15T12:07:31;1.17;;;0.60;;
6505;SDS011;3286;49.858;8.768;2023-01-15T12:10:34;2.53;;;0.73;;
6505;SDS011;3286;49.858;8.768;2023-01-15T12:13:49;1.17;;;0.67;;
6505;SDS011;3286;49.858;8.768;2023-01-15T12:17:00;0.87;;;0.60;;
6505;SDS011;3286;49.858;8.768;2023-01-15T12:24:07;0.63;;;0.37;;
6505;SDS011;3286;49.858;8.768;2023-01-15T12:28:46;1.60;;;0.70;;
6505;SDS011;3286;49.858;8.768;2023-01-15T12:30:08;1.83;;;0.60;;
6505;SDS011;3286;49.858;8.768;2023-01-15T12:33:12;0.97;;;0.63;;
6505;SDS011;3286;49.858;8.768;2023-01-15T12:39:29;1.37;;;0.77;;
6505;SDS011;3286;49.858;8.768;2023-01-15T12:42:41;2.83;;;0.77;;
6505;SDS011;3286;49.858;8.768;2023-01-15T12:45:31;3.47;;;0.57;;
6505;SDS011;3286;49.858;8.768;2023-01-15T12:51:29;2.50;;;0.60;;
6505;SDS011;3286;49.858;8.768;2023-01-15T12:57:52;1.60;;;0.50;;
6505;SDS011;3286;49.858;8.768;2023-01-15T13:00:59;1.43;;;0.60;;
6505;SDS011;3286;49.858;8.768;2023-01-15T13:04:06;0.83;;;0.67;;
6505;SDS011;3286;49.858;8.768;2023-01-15T13:09:47;1.77;;;0.50;;
6505;SDS011;3286;49.858;8.768;2023-01-15T13:13:07;7.00;;;0.73;;
6505;SDS011;3286;49.858;8.768;2023-01-15T13:16:15;1.30;;;0.63;;
6505;SDS011;3286;49.858;8.768;2023-01-15T13:19:07;3.03;;;0.80;;
6505;SDS011;3286;49.858;8.768;2023-01-15T13:22:05;0.67;;;0.67;;
6505;SDS011;3286;49.858;8.768;2023-01-15T13:28:10;1.33;;;0.50;;
6505;SDS011;3286;49.858;8.768;2023-01-15T13:31:17;0.93;;;0.60;;
6505;SDS011;3286;49.858;8.768;2023-01-15T13:37:18;2.97;;;0.50;;
6505;SDS011;3286;49.858;8.768;2023-01-15T13:40:17;1.97;;;0.80;;
6505;SDS011;3286;49.858;8.768;2023-01-15T13:43:23;0.53;;;0.50;;
6505;SDS011;3286;49.858;8.768;2023-01-15T13:49:40;0.97;;;0.80;;
6505;SDS011;3286;49.858;8.768;2023-01-15T13:59:28;1.60;;;0.60;;
6505;SDS011;3286;49.858;8.768;2023-01-15T14:05:35;1.70;;;0.80;;
6505;SDS011;3286;49.858;8.768;2023-01-15T14:11:47;2.33;;;1.03;;
6505;SDS011;3286;49.858;8.768;2023-01-15T14:14:47;4.60;;;0.90;;
6505;SDS011;3286;49.858;8.768;2023-01-15T14:21:24;2.03;;;1.10;;
6505;SDS011;3286;49.858;8.768;2023-01-15T14:34:39;4.27;;;0.83;;
6505;SDS011;3286;49.858;8.768;2023-01-15T14:36:55;3.77;;;1.13;;
6505;SDS011;3286;49.858;8.768;2023-01-15T14:40:01;1.93;;;1.20;;
6505;SDS011;3286;49.858;8.768;2023-01-15T14:46:41;1.43;;;1.00;;
6505;SDS011;3286;49.858;8.768;2023-01-15T14:51:53;4.87;;;1.40;;
6505;SDS011;3286;49.858;8.768;2023-01-15T14:56:00;3.70;;;1.30;;
6505;SDS011;3286;49.858;8.768;2023-01-15T14:58:20;1.73;;;0.70;;
6505;SDS011;3286;49.858;8.768;2023-01-15T15:01:36;1.90;;;0.70;;
6505;SDS011;3286;49.858;8.768;2023-01-15T15:04:38;4.50;;;1.27;;
6505;SDS011;3286;49.858;8.768;2023-01-15T15:07:38;1.23;;;0.63;;
6505;SDS011;3286;49.858;8.768;2023-01-15T15:10:58;4.30;;;0.83;;
6505;SDS011;3286;49.858;8.768;2023-01-15T15:13:45;3.33;;;0.93;;
6505;SDS011;3286;49.858;8.768;2023-01-15T15:16:39;2.67;;;1.30;;
6505;SDS011;3286;49.858;8.768;2023-01-15T15:26:17;1.47;;;0.93;;
6505;SDS011;3286;49.858;8.768;2023-01-15T15:32:30;2.00;;;0.70;;
6505;SDS011;3286;49.858;8.768;2023-01-15T15:35:26;3.90;;;0.90;;
6505;SDS011;3286;49.858;8.768;2023-01-15T15:40:30;5.00;;;1.00;;
6505;SDS011;3286;49.858;8.768;2023-01-15T15:41:46;2.20;;;0.87;;
6505;SDS011;3286;49.858;8.768;2023-01-15T15:48:16;2.00;;;0.80;;
6505;SDS011;3286;49.858;8.768;2023-01-15T15:51:01;3.30;;;0.80;;
6505;SDS011;3286;49.858;8.768;2023-01-15T15:56:47;2.97;;;0.97;;
6505;SDS011;3286;49.858;8.768;2023-01-15T15:59:47;2.23;;;0.90;;
6505;SDS011;3286;49.858;8.768;2023-01-15T16:02:59;4.13;;;0.87;;
6505;SDS011;3286;49.858;8.768;2023-01-15T16:05:53;5.17;;;1.17;;
6505;SDS011;3286;49.858;8.768;2023-01-15T16:09:09;3.77;;;1.17;;
6505;SDS011;3286;49.858;8.768;2023-01-15T16:12:02;1.80;;;0.90;;
6505;SDS011;3286;49.858;8.768;2023-01-15T16:15:20;3.83;;;1.43;;
6505;SDS011;3286;49.858;8.768;2023-01-15T16:18:03;1.27;;;0.73;;
6505;SDS011;3286;49.858;8.768;2023-01-15T16:27:12;2.17;;;1.10;;
6505;SDS011;3286;49.858;8.768;2023-01-15T16:30:02;2.63;;;1.30;;
6505;SDS011;3286;49.858;8.768;2023-01-15T16:32:44;3.77;;;2.13;;
6505;SDS011;3286;49.858;8.768;2023-01-15T16:35:22;2.27;;;1.13;;
6505;SDS011;3286;49.858;8.768;2023-01-15T16:38:23;3.43;;;1.70;;
6505;SDS011;3286;49.858;8.768;2023-01-15T16:41:15;5.63;;;1.80;;
6505;SDS011;3286;49.858;8.768;2023-01-15T16:47:23;2.90;;;1.07;;
6505;SDS011;3286;49.858;8.768;2023-01-15T16:50:30;3.10;;;1.37;;
6505;SDS011;3286;49.858;8.768;2023-01-15T17:04:27;1.70;;;1.50;;
6505;SDS011;3286;49.858;8.768;2023-01-15T17:05:46;6.50;;;1.70;;
6505;SDS011;3286;49.858;8.768;2023-01-15T17:08:29;4.73;;;1.53;;
6505;SDS011;3286;49.858;8.768;2023-01-15T17:11:18;5.17;;;2.40;;
6505;SDS011;3286;49.858;8.768;2023-01-15T17:14:20;7.03;;;3.40;;
6505;SDS011;3286;49.858;8.768;2023-01-15T17:20:13;4.50;;;2.30;;
6505;SDS011;3286;49.858;8.768;2023-01-15T17:23:08;2.23;;;1.73;;
6505;SDS011;3286;49.858;8.768;2023-01-15T17:26:02;2.73;;;1.53;;
6505;SDS011;3286;49.858;8.768;2023-01-15T17:29:15;3.17;;;1.03;;
6505;SDS011;3286;49.858;8.768;2023-01-15T17:32:09;5.67;;;1.60;;
6505;SDS011;3286;49.858;8.768;2023-01-15T17:34:59;3.60;;;1.43;;
6505;SDS011;3286;49.858;8.768;2023-01-15T17:37:47;4.43;;;1.97;;
6505;SDS011;3286;49.858;8.768;2023-01-15T17:44:04;8.07;;;3.23;;
6505;SDS011;3286;49.858;8.768;2023-01-15T17:46:38;7.13;;;1.90;;
6505;SDS011;3286;49.858;8.768;2023-01-15T17:49:55;11.37;;;4.70;;
6505;SDS011;3286;49.858;8.768;2023-01-15T17:52:30;11.23;;;3.10;;
6505;SDS011;3286;49.858;8.768;2023-01-15T17:57:53;8.37;;;2.43;;
6505;SDS011;3286;49.858;8.768;2023-01-15T18:00:54;9.43;;;2.37;;
6505;SDS011;3286;49.858;8.768;2023-01-15T18:03:49;5.40;;;1.40;;
6505;SDS011;3286;49.858;8.768;2023-01-15T18:06:34;3.50;;;1.93;;
6505;SDS011;3286;49.858;8.768;2023-01-15T18:09:02;6.50;;;1.77;;
6505;SDS011;3286;49.858;8.768;2023-01-15T18:11:31;4.47;;;1.70;;
6505;SDS011;3286;49.858;8.768;2023-01-15T18:13:58;7.87;;;1.73;;
6505;SDS011;3286;49.858;8.768;2023-01-15T18:16:26;2.90;;;1.33;;
6505;SDS011;3286;49.858;8.768;2023-01-15T18:18:53;4.00;;;1.63;;
6505;SDS011;3286;49.858;8.768;2023-01-15T18:21:20;3.37;;;1.80;;
6505;SDS011;3286;49.858;8.768;2023-01-15T18:23:47;5.77;;;1.40;;
6505;SDS011;3286;49.858;8.768;2023-01-15T18:26:14;5.80;;;1.73;;
6505;SDS011;3286;49.858;8.768;2023-01-15T18:28:40;2.00;;;1.30;;
6505;SDS011;3286;49.858;8.768;2023-01-15T18:31:09;3.00;;;1.60;;
6505;SDS011;3286;49.858;8.768;2023-01-15T18:33:39;1.97;;;1.13;;
6505;SDS011;3286;49.858;8.768;2023-01-15T18:36:06;2.33;;;1.00;;
6505;SDS011;3286;49.858;8.768;2023-01-15T18:38:35;2.63;;;1.20;;
6505;SDS011;3286;49.858;8.768;2023-01-15T18:41:05;2.47;;;1.40;;
6505;SDS011;3286;49.858;8.768;2023-01-15T18:43:32;3.90;;;1.50;;
6505;SDS011;3286;49.858;8.768;2023-01-15T18:46:17;5.83;;;1.20;;
6505;SDS011;3286;49.858;8.768;2023-01-15T18:49:02;1.60;;;1.00;;
6505;SDS011;3286;49.858;8.768;2023-01-15T18:51:29;4.60;;;1.60;;
6505;SDS011;3286;49.858;8.768;2023-01-15T18:53:56;3.37;;;1.40;;
6505;SDS011;3286;49.858;8.768;2023-01-15T18:56:22;3.50;;;1.07;;
6505;SDS011;3286;49.858;8.768;2023-01-15T19:09:40;1.87;;;1.20;;
6505;SDS011;3286;49.858;8.768;2023-01-15T19:12:07;4.83;;;1.53;;
6505;SDS011;3286;49.858;8.768;2023-01-15T19:14:33;3.37;;;1.40;;
6505;SDS011;3286;49.858;8.768;2023-01-15T19:17:19;3.47;;;1.50;;
6505;SDS011;3286;49.858;8.768;2023-01-15T19:20:05;4.47;;;1.33;;
6505;SDS011;3286;49.858;8.768;2023-01-15T19:22:33;3.30;;;1.20;;
6505;SDS011;3286;49.858;8.768;2023-01-15T19:25:18;1.93;;;1.10;;
6505;SDS011;3286;49.858;8.768;2023-01-15T19:27:47;4.53;;;1.10;;
6505;SDS011;3286;49.858;8.768;2023-01-15T19:30:13;4.37;;;1.30;;
6505;SDS011;3286;49.858;8.768;2023-01-15T19:32:40;3.83;;;1.20;;
6505;SDS011;3286;49.858;8.768;2023-01-15T19:35:07;3.83;;;1.40;;
6505;SDS011;3286;49.858;8.768;2023-01-15T19:37:34;3.33;;;1.30;;
6505;SDS011;3286;49.858;8.768;2023-01-15T19:40:03;3.53;;;1.30;;
6505;SDS011;3286;49.858;8.768;2023-01-15T19:42:33;3.60;;;1.20;;
6505;SDS011;3286;49.858;8.768;2023-01-15T19:45:17;3.63;;;1.10;;
6505;SDS011;3286;49.858;8.768;2023-01-15T19:48:01;3.90;;;1.13;;
6505;SDS011;3286;49.858;8.768;2023-01-15T19:50:46;1.83;;;1.00;;
6505;SDS011;3286;49.858;8.768;2023-01-15T19:53:12;4.50;;;1.27;;
6505;SDS011;3286;49.858;8.768;2023-01-15T19:55:40;2.33;;;0.93;;
6505;SDS011;3286;49.858;8.768;2023-01-15T19:58:10;4.67;;;1.43;;
6505;SDS011;3286;49.858;8.768;2023-01-15T20:00:39;2.47;;;1.07;;
6505;SDS011;3286;49.858;8.768;2023-01-15T20:03:08;3.53;;;1.20;;
6505;SDS011;3286;49.858;8.768;2023-01-15T20:05:36;1.77;;;0.90;;
6505;SDS011;3286;49.858;8.768;2023-01-15T20:08:04;2.43;;;1.20;;
6505;SDS011;3286;49.858;8.768;2023-01-15T20:10:33;4.43;;;1.13;;
6505;SDS011;3286;49.858;8.768;2023-01-15T20:13:02;2.40;;;1.10;;
6505;SDS011;3286;49.858;8.768;2023-01-15T20:15:48;1.77;;;1.17;;
6505;SDS011;3286;49.858;8.768;2023-01-15T20:18:14;5.70;;;1.27;;
6505;SDS011;3286;49.858;8.768;2023-01-15T20:20:42;1.77;;;0.90;;
6505;SDS011;3286;49.858;8.768;2023-01-15T20:23:09;2.33;;;1.27;;
6505;SDS011;3286;49.858;8.768;2023-01-15T20:25:37;6.17;;;1.60;;
6505;SDS011;3286;49.858;8.768;2023-01-15T20:28:03;3.47;;;1.20;;
6505;SDS011;3286;49.858;8.768;2023-01-15T20:30:30;4.73;;;1.47;;
6505;SDS011;3286;49.858;8.768;2023-01-15T20:32:58;9.73;;;1.40;;
6505;SDS011;3286;49.858;8.768;2023-01-15T20:35:25;3.23;;;1.13;;
6505;SDS011;3286;49.858;8.768;2023-01-15T20:37:55;2.40;;;1.10;;
6505;SDS011;3286;49.858;8.768;2023-01-15T20:40:21;4.33;;;1.20;;
6505;SDS011;3286;49.858;8.768;2023-01-15T20:42:49;6.20;;;1.20;;
6505;SDS011;3286;49.858;8.768;2023-01-15T20:45:34;1.43;;;0.97;;
6505;SDS011;3286;49.858;8.768;2023-01-15T20:48:03;1.50;;;1.10;;
6505;SDS011;3286;49.858;8.768;2023-01-15T20:50:47;7.60;;;1.30;;
6505;SDS011;3286;49.858;8.768;2023-01-15T20:53:25;4.37;;;1.07;;
6505;SDS011;3286;49.858;8.768;2023-01-15T20:55:53;2.53;;;1.10;;
6505;SDS011;3286;49.858;8.768;2023-01-15T20:58:20;1.70;;;1.00;;
6505;SDS011;3286;49.858;8.768;2023-01-15T21:00:47;3.47;;;1.30;;
6505;SDS011;3286;49.858;8.768;2023-01-15T21:03:16;3.23;;;1.17;;
6505;SDS011;3286;49.858;8.768;2023-01-15T21:05:42;1.93;;;1.10;;
6505;SDS011;3286;49.858;8.768;2023-01-15T21:08:09;3.03;;;1.10;;
6505;SDS011;3286;49.858;8.768;2023-01-15T21:10:37;4.63;;;1.10;;
6505;SDS011;3286;49.858;8.768;2023-01-15T21:13:03;4.60;;;1.20;;
6505;SDS011;3286;49.858;8.768;2023-01-15T21:15:30;2.07;;;1.13;;
6505;SDS011;3286;49.858;8.768;2023-01-15T21:17:56;2.90;;;1.07;;
6505;SDS011;3286;49.858;8.768;2023-01-15T21:20:24;5.40;;;1.30;;
6505;SDS011;3286;49.858;8.768;2023-01-15T21:22:52;6.07;;;1.17;;
6505;SDS011;3286;49.858;8.768;2023-01-15T21:25:18;2.67;;;0.97;;
6505;SDS011;3286;49.858;8.768;2023-01-15T21:27:45;1.33;;;0.90;;
6505;SDS011;3286;49.858;8.768;2023-01-15T21:30:12;5.20;;;1.20;;
6505;SDS011;3286;49.858;8.768;2023-01-15T21:32:39;2.93;;;1.10;;
6505;SDS011;3286;49.858;8.768;2023-01-15T21:35:10;3.00;;;1.30;;
6505;SDS011;3286;49.858;8.768;2023-01-15T21:37:38;2.77;;;1.10;;
6505;SDS011;3286;49.858;8.768;2023-01-15T21:40:05;2.77;;;1.33;;
6505;SDS011;3286;49.858;8.768;2023-01-15T21:42:33;1.60;;;0.97;;
6505;SDS011;3286;49.858;8.768;2023-01-15T21:45:17;1.30;;;1.17;;
6505;SDS011;3286;49.858;8.768;2023-01-15T21:47:44;6.07;;;1.40;;
6505;SDS011;3286;49.858;8.768;2023-01-15T21:50:11;3.63;;;1.17;;
6505;SDS011;3286;49.858;8.768;2023-01-15T21:52:39;3.60;;;1.17;;
6505;SDS011;3286;49.858;8.768;2023-01-15T21:55:05;2.77;;;0.90;;